Terminal Aerodrome Forecast
Issued by NWS

Home | Current Version | Previous Version | Text Only | Print | Product List | Glossary On
Versions: 1 2 3 4 5 6 7 8 9 10 11 12
000
FTPQ31 PGUM 251127
TAFGUM
TAF

TAF
PKMJ 251127Z 2512/2612 12010KT P6SM VCSH SCT016 BKN050 OVC120
      TEMPO 2512/2516 -SHRA SCT015 BKN030 OVC100=

USA.gov is the U.S. government's official web portal to all federal, state and local government web resources and services.